sensor_id;sensor_type;location;lat;lon;timestamp;pressure;altitude;pressure_sealevel;temperature;humidity
12949;BME280;6539;49.476;8.484;2023-06-26T00:01:31;100311.56;;;25.06;45.14
12949;BME280;6539;49.476;8.484;2023-06-26T00:04:20;100319.75;;;25.04;45.53
12949;BME280;6539;49.476;8.484;2023-06-26T00:07:06;100319.72;;;24.98;46.14
12949;BME280;6539;49.476;8.484;2023-06-26T00:09:52;100311.81;;;24.96;47.06
12949;BME280;6539;49.476;8.484;2023-06-26T00:12:38;100306.69;;;24.95;47.64
12949;BME280;6539;49.476;8.484;2023-06-26T00:15:24;100316.13;;;24.86;47.90
12949;BME280;6539;49.476;8.484;2023-06-26T00:18:12;100312.28;;;24.84;47.55
12949;BME280;6539;49.476;8.484;2023-06-26T00:20:58;100311.75;;;24.85;46.49
12949;BME280;6539;49.476;8.484;2023-06-26T00:23:47;100312.53;;;24.91;46.40
12949;BME280;6539;49.476;8.484;2023-06-26T00:26:33;100310.78;;;24.94;46.08
12949;BME280;6539;49.476;8.484;2023-06-26T00:29:19;100314.31;;;24.89;46.32
12949;BME280;6539;49.476;8.484;2023-06-26T00:32:10;100320.19;;;24.85;46.20
12949;BME280;6539;49.476;8.484;2023-06-26T00:34:56;100309.72;;;24.86;46.16
12949;BME280;6539;49.476;8.484;2023-06-26T00:37:44;100316.06;;;24.75;46.07
12949;BME280;6539;49.476;8.484;2023-06-26T00:40:30;100303.78;;;24.73;46.03
12949;BME280;6539;49.476;8.484;2023-06-26T00:43:16;100306.28;;;24.65;45.96
12949;BME280;6539;49.476;8.484;2023-06-26T00:46:02;100310.59;;;24.61;45.79
12949;BME280;6539;49.476;8.484;2023-06-26T00:48:49;100308.56;;;24.56;46.08
12949;BME280;6539;49.476;8.484;2023-06-26T00:51:35;100308.00;;;24.46;45.57
12949;BME280;6539;49.476;8.484;2023-06-26T00:54:23;100302.38;;;24.41;46.07
12949;BME280;6539;49.476;8.484;2023-06-26T00:57:10;100294.66;;;24.30;46.25
12949;BME280;6539;49.476;8.484;2023-06-26T00:59:56;100301.50;;;24.23;46.34
12949;BME280;6539;49.476;8.484;2023-06-26T01:02:42;100297.66;;;24.21;46.31
12949;BME280;6539;49.476;8.484;2023-06-26T01:05:33;100292.56;;;24.19;45.98
12949;BME280;6539;49.476;8.484;2023-06-26T01:08:22;100296.63;;;24.18;46.46
12949;BME280;6539;49.476;8.484;2023-06-26T01:11:09;100287.69;;;24.14;46.60
12949;BME280;6539;49.476;8.484;2023-06-26T01:13:57;100288.19;;;24.13;46.76
12949;BME280;6539;49.476;8.484;2023-06-26T01:16:46;100276.69;;;24.11;46.73
12949;BME280;6539;49.476;8.484;2023-06-26T01:19:35;100278.72;;;24.10;46.64
12949;BME280;6539;49.476;8.484;2023-06-26T01:22:38;100281.75;;;24.07;46.62
12949;BME280;6539;49.476;8.484;2023-06-26T01:28:41;100276.59;;;24.00;47.00
12949;BME280;6539;49.476;8.484;2023-06-26T01:31:29;100275.31;;;24.01;46.98
12949;BME280;6539;49.476;8.484;2023-06-26T01:34:17;100277.34;;;24.00;47.13
12949;BME280;6539;49.476;8.484;2023-06-26T01:37:04;100277.09;;;23.98;47.27
12949;BME280;6539;49.476;8.484;2023-06-26T01:39:50;100280.13;;;23.95;47.36
12949;BME280;6539;49.476;8.484;2023-06-26T01:42:36;100275.25;;;23.90;47.66
12949;BME280;6539;49.476;8.484;2023-06-26T01:45:29;100274.97;;;23.88;47.42
12949;BME280;6539;49.476;8.484;2023-06-26T01:48:25;100273.13;;;23.79;47.66
12949;BME280;6539;49.476;8.484;2023-06-26T01:51:16;100270.59;;;23.81;47.80
12949;BME280;6539;49.476;8.484;2023-06-26T01:54:13;100281.34;;;23.83;48.04
12949;BME280;6539;49.476;8.484;2023-06-26T01:57:04;100278.75;;;23.79;48.45
12949;BME280;6539;49.476;8.484;2023-06-26T01:59:54;100286.69;;;23.81;48.75
12949;BME280;6539;49.476;8.484;2023-06-26T02:02:44;100279.00;;;23.81;49.16
12949;BME280;6539;49.476;8.484;2023-06-26T02:05:33;100279.19;;;23.72;49.34
12949;BME280;6539;49.476;8.484;2023-06-26T02:08:19;100284.00;;;23.66;49.54
12949;BME280;6539;49.476;8.484;2023-06-26T02:11:05;100284.69;;;23.56;49.21
12949;BME280;6539;49.476;8.484;2023-06-26T02:13:51;100286.16;;;23.51;49.31
12949;BME280;6539;49.476;8.484;2023-06-26T02:16:37;100279.97;;;23.41;49.37
12949;BME280;6539;49.476;8.484;2023-06-26T02:19:23;100281.84;;;23.24;50.24
12949;BME280;6539;49.476;8.484;2023-06-26T02:22:16;100282.78;;;23.16;50.83
12949;BME280;6539;49.476;8.484;2023-06-26T02:25:03;100286.25;;;23.05;51.42
12949;BME280;6539;49.476;8.484;2023-06-26T02:27:49;100281.84;;;22.99;51.88
12949;BME280;6539;49.476;8.484;2023-06-26T02:30:35;100288.84;;;22.89;52.72
12949;BME280;6539;49.476;8.484;2023-06-26T02:33:21;100285.22;;;22.83;53.30
12949;BME280;6539;49.476;8.484;2023-06-26T02:36:07;100291.59;;;22.83;53.67
12949;BME280;6539;49.476;8.484;2023-06-26T02:38:53;100280.03;;;22.75;53.90
12949;BME280;6539;49.476;8.484;2023-06-26T02:41:39;100282.09;;;22.75;55.10
12949;BME280;6539;49.476;8.484;2023-06-26T02:44:25;100278.88;;;22.62;56.24
12949;BME280;6539;49.476;8.484;2023-06-26T02:47:11;100278.63;;;22.45;57.18
12949;BME280;6539;49.476;8.484;2023-06-26T02:49:59;100285.13;;;22.37;57.93
12949;BME280;6539;49.476;8.484;2023-06-26T02:52:46;100277.91;;;22.30;58.39
12949;BME280;6539;49.476;8.484;2023-06-26T02:55:36;100285.97;;;22.23;58.70
12949;BME280;6539;49.476;8.484;2023-06-26T02:58:24;100285.41;;;22.19;58.83
12949;BME280;6539;49.476;8.484;2023-06-26T03:01:10;100286.66;;;22.18;58.95
12949;BME280;6539;49.476;8.484;2023-06-26T03:03:58;100291.69;;;22.14;58.55
12949;BME280;6539;49.476;8.484;2023-06-26T03:06:51;100293.81;;;22.19;58.07
12949;BME280;6539;49.476;8.484;2023-06-26T03:09:37;100294.41;;;22.08;58.44
12949;BME280;6539;49.476;8.484;2023-06-26T03:12:23;100292.50;;;21.99;58.79
12949;BME280;6539;49.476;8.484;2023-06-26T03:15:11;100299.28;;;21.93;58.90
12949;BME280;6539;49.476;8.484;2023-06-26T03:17:59;100296.66;;;21.89;59.05
12949;BME280;6539;49.476;8.484;2023-06-26T03:20:51;100296.88;;;21.86;59.03
12949;BME280;6539;49.476;8.484;2023-06-26T03:23:39;100304.97;;;21.84;58.80
12949;BME280;6539;49.476;8.484;2023-06-26T03:26:25;100292.25;;;21.83;58.42
12949;BME280;6539;49.476;8.484;2023-06-26T03:29:13;100289.84;;;21.90;58.21
12949;BME280;6539;49.476;8.484;2023-06-26T03:31:59;100293.88;;;21.89;57.90
12949;BME280;6539;49.476;8.484;2023-06-26T03:34:45;100301.78;;;21.91;57.90
12949;BME280;6539;49.476;8.484;2023-06-26T03:37:32;100288.50;;;21.86;57.96
12949;BME280;6539;49.476;8.484;2023-06-26T03:40:20;100291.66;;;21.79;58.26
12949;BME280;6539;49.476;8.484;2023-06-26T03:43:06;100288.00;;;21.73;58.46
12949;BME280;6539;49.476;8.484;2023-06-26T03:45:52;100294.16;;;21.77;58.52
12949;BME280;6539;49.476;8.484;2023-06-26T03:48:38;100296.47;;;21.78;57.95
12949;BME280;6539;49.476;8.484;2023-06-26T03:51:27;100294.56;;;21.84;57.69
12949;BME280;6539;49.476;8.484;2023-06-26T03:54:13;100295.50;;;21.96;57.05
12949;BME280;6539;49.476;8.484;2023-06-26T03:57:01;100289.22;;;22.01;56.98
12949;BME280;6539;49.476;8.484;2023-06-26T03:59:48;100301.53;;;22.09;56.90
12949;BME280;6539;49.476;8.484;2023-06-26T04:02:35;100294.16;;;22.26;56.56
12949;BME280;6539;49.476;8.484;2023-06-26T04:05:23;100288.63;;;22.52;55.97
12949;BME280;6539;49.476;8.484;2023-06-26T04:08:11;100285.50;;;22.64;55.53
12949;BME280;6539;49.476;8.484;2023-06-26T04:10:57;100290.50;;;22.75;54.85
12949;BME280;6539;49.476;8.484;2023-06-26T04:13:44;100297.59;;;22.76;54.06
12949;BME280;6539;49.476;8.484;2023-06-26T04:16:30;100300.06;;;22.68;54.11
12949;BME280;6539;49.476;8.484;2023-06-26T04:19:16;100297.41;;;22.59;53.90
12949;BME280;6539;49.476;8.484;2023-06-26T04:22:05;100307.75;;;22.53;53.97
12949;BME280;6539;49.476;8.484;2023-06-26T04:24:52;100309.41;;;22.45;54.43
12949;BME280;6539;49.476;8.484;2023-06-26T04:27:38;100305.34;;;22.46;54.48
12949;BME280;6539;49.476;8.484;2023-06-26T04:30:24;100307.38;;;22.46;54.41
12949;BME280;6539;49.476;8.484;2023-06-26T04:33:10;100315.44;;;22.38;54.29
12949;BME280;6539;49.476;8.484;2023-06-26T04:35:57;100312.47;;;22.27;54.76
12949;BME280;6539;49.476;8.484;2023-06-26T04:38:46;100302.66;;;22.17;55.09
12949;BME280;6539;49.476;8.484;2023-06-26T04:41:35;100304.59;;;22.11;56.10
12949;BME280;6539;49.476;8.484;2023-06-26T04:44:21;100314.28;;;21.95;56.87
12949;BME280;6539;49.476;8.484;2023-06-26T04:47:11;100310.63;;;21.89;56.71
12949;BME280;6539;49.476;8.484;2023-06-26T04:49:57;100306.69;;;21.96;56.29
12949;BME280;6539;49.476;8.484;2023-06-26T04:52:45;100304.16;;;21.98;56.26
12949;BME280;6539;49.476;8.484;2023-06-26T04:55:31;100305.16;;;21.95;56.55
12949;BME280;6539;49.476;8.484;2023-06-26T04:58:20;100305.72;;;22.19;55.04
12949;BME280;6539;49.476;8.484;2023-06-26T05:01:06;100304.78;;;22.22;54.98
12949;BME280;6539;49.476;8.484;2023-06-26T05:03:52;100308.00;;;22.35;54.60
12949;BME280;6539;49.476;8.484;2023-06-26T05:06:38;100309.91;;;22.44;54.03
12949;BME280;6539;49.476;8.484;2023-06-26T05:09:24;100306.59;;;22.60;53.62
12949;BME280;6539;49.476;8.484;2023-06-26T05:12:10;100304.34;;;22.64;53.61
12949;BME280;6539;49.476;8.484;2023-06-26T05:14:57;100301.88;;;22.71;53.78
12949;BME280;6539;49.476;8.484;2023-06-26T05:17:43;100303.38;;;22.93;53.07
12949;BME280;6539;49.476;8.484;2023-06-26T05:20:32;100306.88;;;23.08;52.34
12949;BME280;6539;49.476;8.484;2023-06-26T05:23:19;100310.56;;;23.19;52.06
12949;BME280;6539;49.476;8.484;2023-06-26T05:26:09;100304.78;;;23.28;51.76
12949;BME280;6539;49.476;8.484;2023-06-26T05:28:56;100312.97;;;23.32;51.75
12949;BME280;6539;49.476;8.484;2023-06-26T05:31:45;100322.72;;;23.36;51.53
12949;BME280;6539;49.476;8.484;2023-06-26T05:34:33;100311.28;;;23.40;50.22
12949;BME280;6539;49.476;8.484;2023-06-26T05:37:24;100310.75;;;23.36;49.91
12949;BME280;6539;49.476;8.484;2023-06-26T05:40:13;100308.03;;;23.21;50.25
12949;BME280;6539;49.476;8.484;2023-06-26T05:43:02;100313.31;;;23.14;50.77
12949;BME280;6539;49.476;8.484;2023-06-26T05:45:50;100310.50;;;23.14;50.70
12949;BME280;6539;49.476;8.484;2023-06-26T05:48:36;100314.91;;;23.20;50.67
12949;BME280;6539;49.476;8.484;2023-06-26T05:51:25;100310.59;;;23.25;50.91
12949;BME280;6539;49.476;8.484;2023-06-26T05:54:11;100311.91;;;23.29;51.36
12949;BME280;6539;49.476;8.484;2023-06-26T05:56:59;100312.84;;;23.41;50.80
12949;BME280;6539;49.476;8.484;2023-06-26T05:59:46;100321.66;;;23.60;51.04
12949;BME280;6539;49.476;8.484;2023-06-26T06:02:34;100312.63;;;23.76;50.84
12949;BME280;6539;49.476;8.484;2023-06-26T06:05:22;100322.81;;;23.73;49.38
12949;BME280;6539;49.476;8.484;2023-06-26T06:08:10;100312.84;;;23.72;49.58
12949;BME280;6539;49.476;8.484;2023-06-26T06:10:57;100320.78;;;23.74;49.26
12949;BME280;6539;49.476;8.484;2023-06-26T06:13:43;100323.06;;;23.75;49.45
12949;BME280;6539;49.476;8.484;2023-06-26T06:16:31;100314.66;;;23.75;49.72
12949;BME280;6539;49.476;8.484;2023-06-26T06:19:21;100307.53;;;23.74;49.74
12949;BME280;6539;49.476;8.484;2023-06-26T06:22:07;100311.75;;;23.95;49.25
12949;BME280;6539;49.476;8.484;2023-06-26T06:24:55;100315.81;;;23.94;49.38
12949;BME280;6539;49.476;8.484;2023-06-26T06:27:41;100316.88;;;24.02;49.19
12949;BME280;6539;49.476;8.484;2023-06-26T06:30:28;100304.00;;;24.16;48.94
12949;BME280;6539;49.476;8.484;2023-06-26T06:33:14;100306.84;;;24.21;48.41
12949;BME280;6539;49.476;8.484;2023-06-26T06:36:00;100307.38;;;24.26;48.42
12949;BME280;6539;49.476;8.484;2023-06-26T06:38:46;100313.31;;;24.39;48.22
12949;BME280;6539;49.476;8.484;2023-06-26T06:41:37;100321.97;;;24.35;47.98
12949;BME280;6539;49.476;8.484;2023-06-26T06:44:26;100313.06;;;24.37;48.48
12949;BME280;6539;49.476;8.484;2023-06-26T06:47:12;100307.47;;;24.48;47.72
12949;BME280;6539;49.476;8.484;2023-06-26T06:49:59;100311.38;;;24.56;47.89
12949;BME280;6539;49.476;8.484;2023-06-26T06:52:47;100302.97;;;24.61;47.78
12949;BME280;6539;49.476;8.484;2023-06-26T06:55:33;100304.25;;;24.66;47.99
12949;BME280;6539;49.476;8.484;2023-06-26T06:58:20;100303.75;;;24.67;48.06
12949;BME280;6539;49.476;8.484;2023-06-26T07:01:08;100303.03;;;24.78;47.83
12949;BME280;6539;49.476;8.484;2023-06-26T07:03:54;100300.00;;;24.81;47.91
12949;BME280;6539;49.476;8.484;2023-06-26T07:06:40;100304.38;;;24.88;48.10
12949;BME280;6539;49.476;8.484;2023-06-26T07:09:31;100306.19;;;25.02;47.40
12949;BME280;6539;49.476;8.484;2023-06-26T07:12:17;100310.50;;;24.97;48.32
12949;BME280;6539;49.476;8.484;2023-06-26T07:15:06;100313.56;;;24.99;47.79
12949;BME280;6539;49.476;8.484;2023-06-26T07:17:52;100311.28;;;24.98;48.34
12949;BME280;6539;49.476;8.484;2023-06-26T07:20:41;100298.81;;;25.16;48.16
12949;BME280;6539;49.476;8.484;2023-06-26T07:23:29;100301.63;;;25.21;48.14
12949;BME280;6539;49.476;8.484;2023-06-26T07:26:17;100304.47;;;25.38;47.36
12949;BME280;6539;49.476;8.484;2023-06-26T07:29:04;100293.25;;;25.43;47.39
12949;BME280;6539;49.476;8.484;2023-06-26T07:31:57;100290.94;;;25.47;47.81
12949;BME280;6539;49.476;8.484;2023-06-26T07:34:43;100288.16;;;25.53;47.46
12949;BME280;6539;49.476;8.484;2023-06-26T07:37:29;100302.47;;;25.66;47.37
12949;BME280;6539;49.476;8.484;2023-06-26T07:40:18;100292.50;;;25.76;47.28
12949;BME280;6539;49.476;8.484;2023-06-26T07:43:04;100302.19;;;25.86;47.07
12949;BME280;6539;49.476;8.484;2023-06-26T07:45:52;100307.81;;;26.03;46.79
12949;BME280;6539;49.476;8.484;2023-06-26T07:48:39;100296.81;;;26.10;46.55
12949;BME280;6539;49.476;8.484;2023-06-26T07:51:26;100304.72;;;26.23;46.39
12949;BME280;6539;49.476;8.484;2023-06-26T07:54:14;100303.63;;;26.42;45.87
12949;BME280;6539;49.476;8.484;2023-06-26T07:57:03;100304.38;;;26.48;45.82
12949;BME280;6539;49.476;8.484;2023-06-26T07:59:50;100297.69;;;26.57;45.68
12949;BME280;6539;49.476;8.484;2023-06-26T08:02:36;100298.41;;;26.74;44.57
12949;BME280;6539;49.476;8.484;2023-06-26T08:05:23;100297.38;;;26.72;44.58
12949;BME280;6539;49.476;8.484;2023-06-26T08:08:09;100300.38;;;26.90;44.92
12949;BME280;6539;49.476;8.484;2023-06-26T08:10:55;100311.22;;;27.22;44.41
12949;BME280;6539;49.476;8.484;2023-06-26T08:13:43;100307.34;;;27.25;44.18
12949;BME280;6539;49.476;8.484;2023-06-26T08:16:29;100313.47;;;27.29;44.15
12949;BME280;6539;49.476;8.484;2023-06-26T08:19:18;100312.16;;;27.41;43.76
12949;BME280;6539;49.476;8.484;2023-06-26T08:22:05;100318.59;;;27.65;43.36
12949;BME280;6539;49.476;8.484;2023-06-26T08:24:53;100322.06;;;27.82;42.98
12949;BME280;6539;49.476;8.484;2023-06-26T08:27:39;100320.72;;;27.89;43.57
12949;BME280;6539;49.476;8.484;2023-06-26T08:30:25;100320.31;;;28.09;42.76
12949;BME280;6539;49.476;8.484;2023-06-26T08:33:13;100312.81;;;28.60;39.37
12949;BME280;6539;49.476;8.484;2023-06-26T08:35:59;100314.91;;;28.59;39.36
12949;BME280;6539;49.476;8.484;2023-06-26T08:38:46;100316.41;;;28.60;38.86
12949;BME280;6539;49.476;8.484;2023-06-26T08:41:34;100316.09;;;28.64;38.96
12949;BME280;6539;49.476;8.484;2023-06-26T08:44:21;100323.22;;;28.71;38.40
12949;BME280;6539;49.476;8.484;2023-06-26T08:47:14;100333.94;;;28.78;38.29
12949;BME280;6539;49.476;8.484;2023-06-26T08:50:13;100341.50;;;28.70;38.13
12949;BME280;6539;49.476;8.484;2023-06-26T08:53:05;100339.03;;;28.60;38.64
12949;BME280;6539;49.476;8.484;2023-06-26T08:55:57;100335.97;;;28.77;38.46
12949;BME280;6539;49.476;8.484;2023-06-26T08:58:45;100344.28;;;28.94;37.74
12949;BME280;6539;49.476;8.484;2023-06-26T09:01:31;100348.97;;;28.86;37.81
12949;BME280;6539;49.476;8.484;2023-06-26T09:04:17;100339.03;;;28.79;38.26
12949;BME280;6539;49.476;8.484;2023-06-26T09:07:04;100339.53;;;28.83;38.42
12949;BME280;6539;49.476;8.484;2023-06-26T09:09:53;100333.03;;;29.07;38.15
12949;BME280;6539;49.476;8.484;2023-06-26T09:12:41;100335.19;;;29.19;37.94
12949;BME280;6539;49.476;8.484;2023-06-26T09:16:04;100333.44;;;29.35;37.15
12949;BME280;6539;49.476;8.484;2023-06-26T09:18:55;100330.97;;;29.45;37.39
12949;BME280;6539;49.476;8.484;2023-06-26T09:21:43;100334.63;;;29.58;37.30
12949;BME280;6539;49.476;8.484;2023-06-26T09:24:31;100342.09;;;29.74;36.36
12949;BME280;6539;49.476;8.484;2023-06-26T09:27:21;100332.03;;;29.73;36.30
12949;BME280;6539;49.476;8.484;2023-06-26T09:30:10;100327.53;;;29.83;36.13
12949;BME280;6539;49.476;8.484;2023-06-26T09:32:56;100328.22;;;30.02;36.04
12949;BME280;6539;49.476;8.484;2023-06-26T09:35:46;100329.44;;;30.20;35.67
12949;BME280;6539;49.476;8.484;2023-06-26T09:38:35;100332.19;;;30.26;35.53
12949;BME280;6539;49.476;8.484;2023-06-26T09:41:22;100339.56;;;30.29;35.22
12949;BME280;6539;49.476;8.484;2023-06-26T09:44:13;100338.06;;;30.54;34.67
12949;BME280;6539;49.476;8.484;2023-06-26T09:47:02;100339.28;;;30.58;34.88
12949;BME280;6539;49.476;8.484;2023-06-26T09:49:52;100341.16;;;30.43;34.90
12949;BME280;6539;49.476;8.484;2023-06-26T09:52:41;100336.78;;;30.42;35.24
12949;BME280;6539;49.476;8.484;2023-06-26T09:55:27;100337.22;;;30.46;35.08
12949;BME280;6539;49.476;8.484;2023-06-26T09:58:13;100335.69;;;30.58;34.99
12949;BME280;6539;49.476;8.484;2023-06-26T10:01:03;100334.50;;;30.93;34.39
12949;BME280;6539;49.476;8.484;2023-06-26T10:03:51;100346.47;;;30.99;34.52
12949;BME280;6539;49.476;8.484;2023-06-26T10:06:49;100343.47;;;31.17;34.12
12949;BME280;6539;49.476;8.484;2023-06-26T10:09:42;100339.25;;;30.84;34.38
12949;BME280;6539;49.476;8.484;2023-06-26T10:12:30;100348.31;;;30.31;35.25
12949;BME280;6539;49.476;8.484;2023-06-26T10:15:21;100344.47;;;30.02;35.99
12949;BME280;6539;49.476;8.484;2023-06-26T10:18:13;100341.13;;;30.30;35.97
12949;BME280;6539;49.476;8.484;2023-06-26T10:21:08;100339.84;;;30.44;35.56
12949;BME280;6539;49.476;8.484;2023-06-26T10:23:56;100341.38;;;30.58;35.24
12949;BME280;6539;49.476;8.484;2023-06-26T10:26:45;100343.53;;;30.91;34.62
12949;BME280;6539;49.476;8.484;2023-06-26T10:29:34;100345.75;;;31.19;34.62
12949;BME280;6539;49.476;8.484;2023-06-26T10:32:25;100346.56;;;30.93;34.80
12949;BME280;6539;49.476;8.484;2023-06-26T10:35:12;100348.22;;;31.35;34.16
12949;BME280;6539;49.476;8.484;2023-06-26T10:38:03;100352.56;;;31.91;33.32
12949;BME280;6539;49.476;8.484;2023-06-26T10:40:49;100349.53;;;32.09;32.95
12949;BME280;6539;49.476;8.484;2023-06-26T10:43:40;100352.19;;;32.35;32.36
12949;BME280;6539;49.476;8.484;2023-06-26T10:46:26;100357.63;;;32.26;32.63
12949;BME280;6539;49.476;8.484;2023-06-26T10:49:12;100359.34;;;31.88;33.16
12949;BME280;6539;49.476;8.484;2023-06-26T10:52:01;100366.63;;;31.55;33.72
12949;BME280;6539;49.476;8.484;2023-06-26T10:54:48;100376.03;;;31.37;33.88
12949;BME280;6539;49.476;8.484;2023-06-26T10:57:38;100370.19;;;31.22;34.11
12949;BME280;6539;49.476;8.484;2023-06-26T11:00:26;100358.09;;;31.08;34.56
12949;BME280;6539;49.476;8.484;2023-06-26T11:03:29;100362.09;;;31.26;34.32
12949;BME280;6539;49.476;8.484;2023-06-26T11:06:21;100360.75;;;31.74;34.03
12949;BME280;6539;49.476;8.484;2023-06-26T11:09:11;100355.81;;;32.44;33.02
12949;BME280;6539;49.476;8.484;2023-06-26T11:12:01;100363.25;;;33.11;31.65
12949;BME280;6539;49.476;8.484;2023-06-26T11:14:53;100356.16;;;33.40;31.33
12949;BME280;6539;49.476;8.484;2023-06-26T11:17:45;100355.84;;;33.66;31.26
12949;BME280;6539;49.476;8.484;2023-06-26T11:20:32;100342.00;;;34.30;30.08
12949;BME280;6539;49.476;8.484;2023-06-26T11:23:24;100330.50;;;34.76;28.73
12949;BME280;6539;49.476;8.484;2023-06-26T11:26:18;100344.78;;;35.23;27.74
12949;BME280;6539;49.476;8.484;2023-06-26T11:29:08;100346.97;;;34.92;28.58
12949;BME280;6539;49.476;8.484;2023-06-26T11:32:00;100347.56;;;34.91;28.31
12949;BME280;6539;49.476;8.484;2023-06-26T11:34:48;100365.28;;;35.29;27.59
12949;BME280;6539;49.476;8.484;2023-06-26T11:37:34;100362.34;;;35.12;27.73
12949;BME280;6539;49.476;8.484;2023-06-26T11:40:21;100363.19;;;34.75;28.27
12949;BME280;6539;49.476;8.484;2023-06-26T11:43:07;100370.69;;;34.25;28.61
12949;BME280;6539;49.476;8.484;2023-06-26T11:45:53;100360.03;;;34.40;28.15
12949;BME280;6539;49.476;8.484;2023-06-26T11:48:39;100360.06;;;34.33;28.27
12949;BME280;6539;49.476;8.484;2023-06-26T11:51:31;100374.19;;;34.93;26.27
12949;BME280;6539;49.476;8.484;2023-06-26T11:54:25;100370.84;;;35.59;25.81
12949;BME280;6539;49.476;8.484;2023-06-26T11:57:17;100363.72;;;34.88;26.49
12949;BME280;6539;49.476;8.484;2023-06-26T12:00:16;100366.00;;;34.90;26.72
12949;BME280;6539;49.476;8.484;2023-06-26T12:03:02;100362.78;;;35.33;25.97
12949;BME280;6539;49.476;8.484;2023-06-26T12:05:49;100357.16;;;35.82;25.88
12949;BME280;6539;49.476;8.484;2023-06-26T12:08:38;100364.13;;;35.96;24.19
12949;BME280;6539;49.476;8.484;2023-06-26T12:11:27;100371.63;;;35.20;24.60
12949;BME280;6539;49.476;8.484;2023-06-26T12:14:17;100362.34;;;35.12;25.10
12949;BME280;6539;49.476;8.484;2023-06-26T12:17:13;100365.84;;;35.67;23.80
12949;BME280;6539;49.476;8.484;2023-06-26T12:19:59;100369.81;;;36.21;22.75
12949;BME280;6539;49.476;8.484;2023-06-26T12:22:51;100362.13;;;36.07;22.98
12949;BME280;6539;49.476;8.484;2023-06-26T12:25:40;100367.75;;;36.39;22.08
12949;BME280;6539;49.476;8.484;2023-06-26T12:28:26;100368.66;;;35.99;22.31
12949;BME280;6539;49.476;8.484;2023-06-26T12:31:15;100351.09;;;35.78;22.61
12949;BME280;6539;49.476;8.484;2023-06-26T12:34:09;100366.56;;;35.75;22.56
12949;BME280;6539;49.476;8.484;2023-06-26T12:37:05;100358.50;;;36.06;22.62
12949;BME280;6539;49.476;8.484;2023-06-26T12:39:57;100366.13;;;36.53;21.58
12949;BME280;6539;49.476;8.484;2023-06-26T12:42:46;100360.66;;;36.23;21.58
12949;BME280;6539;49.476;8.484;2023-06-26T12:45:38;100354.81;;;36.38;21.40
12949;BME280;6539;49.476;8.484;2023-06-26T12:48:45;100361.66;;;36.59;21.17
12949;BME280;6539;49.476;8.484;2023-06-26T12:51:34;100357.25;;;36.76;20.23
12949;BME280;6539;49.476;8.484;2023-06-26T12:54:25;100357.38;;;36.51;20.66
12949;BME280;6539;49.476;8.484;2023-06-26T12:57:11;100348.63;;;36.66;20.66
12949;BME280;6539;49.476;8.484;2023-06-26T13:00:07;100352.16;;;36.57;20.18
12949;BME280;6539;49.476;8.484;2023-06-26T13:02:56;100354.31;;;36.07;20.96
12949;BME280;6539;49.476;8.484;2023-06-26T13:05:42;100359.88;;;36.81;20.95
12949;BME280;6539;49.476;8.484;2023-06-26T13:08:28;100357.09;;;36.73;20.61
12949;BME280;6539;49.476;8.484;2023-06-26T13:11:14;100358.34;;;35.47;21.45
12949;BME280;6539;49.476;8.484;2023-06-26T13:59:24;100360.38;;;33.54;23.38
12949;BME280;6539;49.476;8.484;2023-06-26T14:02:11;100371.34;;;33.42;23.83
12949;BME280;6539;49.476;8.484;2023-06-26T14:04:57;100389.81;;;33.05;22.94
12949;BME280;6539;49.476;8.484;2023-06-26T14:07:45;100373.19;;;32.04;23.73
12949;BME280;6539;49.476;8.484;2023-06-26T14:10:34;100379.63;;;31.50;23.80
12949;BME280;6539;49.476;8.484;2023-06-26T14:13:23;100386.50;;;31.76;23.94
12949;BME280;6539;49.476;8.484;2023-06-26T14:16:11;100374.75;;;32.13;23.73
12949;BME280;6539;49.476;8.484;2023-06-26T14:19:00;100377.03;;;32.14;22.51
12949;BME280;6539;49.476;8.484;2023-06-26T14:21:48;100392.75;;;31.74;22.93
12949;BME280;6539;49.476;8.484;2023-06-26T14:24:37;100376.38;;;31.88;22.41
12949;BME280;6539;49.476;8.484;2023-06-26T14:27:23;100392.00;;;32.15;21.99
12949;BME280;6539;49.476;8.484;2023-06-26T14:30:12;100385.63;;;31.81;21.16
12949;BME280;6539;49.476;8.484;2023-06-26T14:32:58;100410.31;;;31.73;21.18
12949;BME280;6539;49.476;8.484;2023-06-26T14:35:44;100392.03;;;31.60;21.90
12949;BME280;6539;49.476;8.484;2023-06-26T14:38:32;100394.06;;;31.73;20.95
12949;BME280;6539;49.476;8.484;2023-06-26T14:41:18;100393.28;;;31.73;20.91
12949;BME280;6539;49.476;8.484;2023-06-26T14:44:04;100398.25;;;31.12;21.87
12949;BME280;6539;49.476;8.484;2023-06-26T14:46:53;100391.72;;;31.04;22.24
12949;BME280;6539;49.476;8.484;2023-06-26T14:49:40;100385.25;;;31.17;22.08
12949;BME280;6539;49.476;8.484;2023-06-26T14:52:26;100406.06;;;31.32;21.34
12949;BME280;6539;49.476;8.484;2023-06-26T14:55:12;100382.81;;;32.22;20.81
12949;BME280;6539;49.476;8.484;2023-06-26T14:57:58;100389.34;;;32.58;20.36
12949;BME280;6539;49.476;8.484;2023-06-26T15:00:44;100404.28;;;33.23;19.61
12949;BME280;6539;49.476;8.484;2023-06-26T15:03:30;100396.53;;;33.23;19.10
12949;BME280;6539;49.476;8.484;2023-06-26T15:06:16;100391.19;;;33.86;18.87
12949;BME280;6539;49.476;8.484;2023-06-26T15:09:02;100382.25;;;34.49;18.07
12949;BME280;6539;49.476;8.484;2023-06-26T15:11:48;100407.19;;;34.41;18.12
12949;BME280;6539;49.476;8.484;2023-06-26T15:14:34;100400.69;;;33.22;19.39
12949;BME280;6539;49.476;8.484;2023-06-26T15:17:20;100396.28;;;32.50;20.37
12949;BME280;6539;49.476;8.484;2023-06-26T15:20:09;100383.91;;;32.19;20.74
12949;BME280;6539;49.476;8.484;2023-06-26T15:23:00;100383.41;;;32.07;20.85
12949;BME280;6539;49.476;8.484;2023-06-26T15:25:48;100402.31;;;32.05;20.88
12949;BME280;6539;49.476;8.484;2023-06-26T15:28:34;100401.69;;;32.40;20.85
12949;BME280;6539;49.476;8.484;2023-06-26T15:31:20;100401.47;;;32.94;20.56
12949;BME280;6539;49.476;8.484;2023-06-26T15:34:06;100401.72;;;32.68;20.27
12949;BME280;6539;49.476;8.484;2023-06-26T15:36:55;100409.19;;;32.30;20.97
12949;BME280;6539;49.476;8.484;2023-06-26T15:39:44;100407.28;;;33.53;19.71